sensor_id;sensor_type;location;lat;lon;timestamp;P1;durP1;ratioP1;P2;durP2;ratioP2
9819;SDS011;4949;48.482;9.206;2022-09-16T00:03:27;9.27;;;7.40;;
9819;SDS011;4949;48.482;9.206;2022-09-16T00:08:28;8.23;;;7.43;;
9819;SDS011;4949;48.482;9.206;2022-09-16T00:13:28;5.67;;;5.27;;
9819;SDS011;4949;48.482;9.206;2022-09-16T00:18:28;6.63;;;5.47;;
9819;SDS011;4949;48.482;9.206;2022-09-16T00:23:29;7.03;;;6.40;;
9819;SDS011;4949;48.482;9.206;2022-09-16T00:28:34;8.03;;;7.30;;
9819;SDS011;4949;48.482;9.206;2022-09-16T00:33:35;6.03;;;5.53;;
9819;SDS011;4949;48.482;9.206;2022-09-16T00:38:35;6.90;;;6.17;;
9819;SDS011;4949;48.482;9.206;2022-09-16T00:43:46;5.70;;;5.20;;
9819;SDS011;4949;48.482;9.206;2022-09-16T00:48:46;7.53;;;5.33;;
9819;SDS011;4949;48.482;9.206;2022-09-16T00:53:49;6.30;;;5.63;;
9819;SDS011;4949;48.482;9.206;2022-09-16T00:59:01;10.80;;;6.07;;
9819;SDS011;4949;48.482;9.206;2022-09-16T01:04:17;6.20;;;5.70;;
9819;SDS011;4949;48.482;9.206;2022-09-16T01:09:22;5.80;;;5.30;;
9819;SDS011;4949;48.482;9.206;2022-09-16T01:14:25;5.40;;;4.97;;
9819;SDS011;4949;48.482;9.206;2022-09-16T01:20:08;4.37;;;3.93;;
9819;SDS011;4949;48.482;9.206;2022-09-16T01:47:02;5.77;;;5.17;;
9819;SDS011;4949;48.482;9.206;2022-09-16T01:57:18;7.80;;;5.40;;
9819;SDS011;4949;48.482;9.206;2022-09-16T02:08:14;6.03;;;5.53;;
9819;SDS011;4949;48.482;9.206;2022-09-16T02:13:23;6.70;;;6.10;;
9819;SDS011;4949;48.482;9.206;2022-09-16T02:18:27;6.03;;;5.30;;
9819;SDS011;4949;48.482;9.206;2022-09-16T02:23:32;6.20;;;5.60;;
9819;SDS011;4949;48.482;9.206;2022-09-16T02:28:38;8.30;;;7.07;;
9819;SDS011;4949;48.482;9.206;2022-09-16T02:38:55;6.13;;;5.60;;
9819;SDS011;4949;48.482;9.206;2022-09-16T02:44:00;6.30;;;5.80;;
9819;SDS011;4949;48.482;9.206;2022-09-16T02:49:37;8.00;;;7.23;;
9819;SDS011;4949;48.482;9.206;2022-09-16T02:59:49;7.00;;;6.30;;
9819;SDS011;4949;48.482;9.206;2022-09-16T03:04:52;5.87;;;5.33;;
9819;SDS011;4949;48.482;9.206;2022-09-16T03:09:52;5.70;;;5.10;;
9819;SDS011;4949;48.482;9.206;2022-09-16T03:14:55;5.53;;;5.13;;
9819;SDS011;4949;48.482;9.206;2022-09-16T03:30:41;7.60;;;6.90;;
9819;SDS011;4949;48.482;9.206;2022-09-16T03:35:47;6.20;;;5.70;;
9819;SDS011;4949;48.482;9.206;2022-09-16T03:40:48;7.80;;;7.00;;
9819;SDS011;4949;48.482;9.206;2022-09-16T03:45:50;6.50;;;5.90;;
9819;SDS011;4949;48.482;9.206;2022-09-16T03:50:50;7.83;;;7.03;;
9819;SDS011;4949;48.482;9.206;2022-09-16T03:55:53;10.90;;;9.90;;
9819;SDS011;4949;48.482;9.206;2022-09-16T04:00:54;7.35;;;6.75;;
9819;SDS011;4949;48.482;9.206;2022-09-16T04:05:54;7.50;;;6.90;;
9819;SDS011;4949;48.482;9.206;2022-09-16T04:10:59;8.50;;;7.57;;
9819;SDS011;4949;48.482;9.206;2022-09-16T04:16:01;7.70;;;7.10;;
9819;SDS011;4949;48.482;9.206;2022-09-16T04:21:03;7.30;;;6.60;;
9819;SDS011;4949;48.482;9.206;2022-09-16T04:26:03;9.90;;;7.80;;
9819;SDS011;4949;48.482;9.206;2022-09-16T04:31:05;7.30;;;6.70;;
9819;SDS011;4949;48.482;9.206;2022-09-16T04:36:11;8.60;;;7.73;;
9819;SDS011;4949;48.482;9.206;2022-09-16T04:46:18;8.33;;;7.53;;
9819;SDS011;4949;48.482;9.206;2022-09-16T04:51:19;7.90;;;7.20;;
9819;SDS011;4949;48.482;9.206;2022-09-16T04:56:22;10.40;;;6.90;;
9819;SDS011;4949;48.482;9.206;2022-09-16T05:01:27;9.80;;;8.10;;
9819;SDS011;4949;48.482;9.206;2022-09-16T05:06:32;9.03;;;8.23;;
9819;SDS011;4949;48.482;9.206;2022-09-16T05:11:37;9.80;;;8.70;;
9819;SDS011;4949;48.482;9.206;2022-09-16T05:16:38;8.73;;;7.90;;
9819;SDS011;4949;48.482;9.206;2022-09-16T05:21:41;8.83;;;8.03;;
9819;SDS011;4949;48.482;9.206;2022-09-16T05:26:42;8.73;;;8.03;;
9819;SDS011;4949;48.482;9.206;2022-09-16T05:31:44;9.30;;;7.60;;
9819;SDS011;4949;48.482;9.206;2022-09-16T05:36:48;12.70;;;8.70;;
9819;SDS011;4949;48.482;9.206;2022-09-16T05:41:52;9.33;;;8.27;;
9819;SDS011;4949;48.482;9.206;2022-09-16T05:46:59;9.63;;;8.63;;
9819;SDS011;4949;48.482;9.206;2022-09-16T05:52:00;8.90;;;8.00;;
9819;SDS011;4949;48.482;9.206;2022-09-16T05:57:01;9.90;;;8.90;;
9819;SDS011;4949;48.482;9.206;2022-09-16T06:02:04;9.57;;;8.77;;
9819;SDS011;4949;48.482;9.206;2022-09-16T06:07:07;9.97;;;8.33;;
9819;SDS011;4949;48.482;9.206;2022-09-16T06:12:08;9.33;;;8.47;;
9819;SDS011;4949;48.482;9.206;2022-09-16T06:17:11;8.33;;;7.53;;
9819;SDS011;4949;48.482;9.206;2022-09-16T06:22:14;9.60;;;8.60;;
9819;SDS011;4949;48.482;9.206;2022-09-16T06:27:14;9.17;;;8.47;;
9819;SDS011;4949;48.482;9.206;2022-09-16T06:32:15;8.60;;;7.73;;
9819;SDS011;4949;48.482;9.206;2022-09-16T06:37:15;8.70;;;7.80;;
9819;SDS011;4949;48.482;9.206;2022-09-16T06:42:18;9.50;;;8.17;;
9819;SDS011;4949;48.482;9.206;2022-09-16T06:47:18;7.30;;;6.57;;
9819;SDS011;4949;48.482;9.206;2022-09-16T06:52:19;7.60;;;6.90;;
9819;SDS011;4949;48.482;9.206;2022-09-16T06:57:22;6.93;;;6.33;;
9819;SDS011;4949;48.482;9.206;2022-09-16T07:02:24;7.40;;;6.70;;
9819;SDS011;4949;48.482;9.206;2022-09-16T07:07:30;6.80;;;6.10;;
9819;SDS011;4949;48.482;9.206;2022-09-16T07:12:31;7.00;;;6.33;;
9819;SDS011;4949;48.482;9.206;2022-09-16T07:17:36;7.77;;;5.90;;
9819;SDS011;4949;48.482;9.206;2022-09-16T07:22:36;8.23;;;5.73;;
9819;SDS011;4949;48.482;9.206;2022-09-16T07:27:37;8.70;;;6.33;;
9819;SDS011;4949;48.482;9.206;2022-09-16T07:32:37;6.90;;;6.20;;
9819;SDS011;4949;48.482;9.206;2022-09-16T07:37:38;7.27;;;6.40;;
9819;SDS011;4949;48.482;9.206;2022-09-16T07:42:38;5.87;;;5.37;;
9819;SDS011;4949;48.482;9.206;2022-09-16T07:47:39;4.57;;;4.17;;
9819;SDS011;4949;48.482;9.206;2022-09-16T07:52:39;4.50;;;4.10;;
9819;SDS011;4949;48.482;9.206;2022-09-16T07:57:42;6.23;;;4.67;;
9819;SDS011;4949;48.482;9.206;2022-09-16T08:02:42;7.27;;;4.80;;
9819;SDS011;4949;48.482;9.206;2022-09-16T08:07:45;5.55;;;4.80;;
9819;SDS011;4949;48.482;9.206;2022-09-16T08:12:47;6.57;;;4.77;;
9819;SDS011;4949;48.482;9.206;2022-09-16T08:17:48;5.17;;;4.67;;
9819;SDS011;4949;48.482;9.206;2022-09-16T08:22:51;4.50;;;4.10;;
9819;SDS011;4949;48.482;9.206;2022-09-16T08:27:52;5.33;;;3.77;;
9819;SDS011;4949;48.482;9.206;2022-09-16T08:32:57;4.43;;;3.70;;
9819;SDS011;4949;48.482;9.206;2022-09-16T08:37:58;4.93;;;4.20;;
9819;SDS011;4949;48.482;9.206;2022-09-16T08:53:44;3.20;;;2.90;;
9819;SDS011;4949;48.482;9.206;2022-09-16T08:58:50;3.97;;;3.30;;
9819;SDS011;4949;48.482;9.206;2022-09-16T09:03:59;4.30;;;3.20;;
9819;SDS011;4949;48.482;9.206;2022-09-16T09:09:02;4.57;;;3.90;;
9819;SDS011;4949;48.482;9.206;2022-09-16T09:30:12;3.80;;;3.50;;
9819;SDS011;4949;48.482;9.206;2022-09-16T09:40:40;3.73;;;3.30;;
9819;SDS011;4949;48.482;9.206;2022-09-16T09:45:53;4.53;;;3.30;;
9819;SDS011;4949;48.482;9.206;2022-09-16T09:50:55;4.70;;;3.73;;
9819;SDS011;4949;48.482;9.206;2022-09-16T09:56:13;3.93;;;3.63;;
9819;SDS011;4949;48.482;9.206;2022-09-16T10:01:17;4.13;;;3.70;;
9819;SDS011;4949;48.482;9.206;2022-09-16T10:06:18;4.07;;;3.70;;
9819;SDS011;4949;48.482;9.206;2022-09-16T10:11:29;4.53;;;3.40;;
9819;SDS011;4949;48.482;9.206;2022-09-16T10:16:34;4.17;;;3.00;;
9819;SDS011;4949;48.482;9.206;2022-09-16T10:21:55;4.20;;;3.80;;
9819;SDS011;4949;48.482;9.206;2022-09-16T10:27:19;4.73;;;3.73;;
9819;SDS011;4949;48.482;9.206;2022-09-16T10:32:23;4.07;;;3.77;;
9819;SDS011;4949;48.482;9.206;2022-09-16T10:37:23;4.43;;;4.13;;
9819;SDS011;4949;48.482;9.206;2022-09-16T10:42:27;4.60;;;4.20;;
9819;SDS011;4949;48.482;9.206;2022-09-16T10:47:31;5.07;;;4.67;;
9819;SDS011;4949;48.482;9.206;2022-09-16T10:52:42;5.20;;;4.37;;
9819;SDS011;4949;48.482;9.206;2022-09-16T10:57:45;4.20;;;3.70;;
9819;SDS011;4949;48.482;9.206;2022-09-16T11:13:36;4.10;;;3.53;;
9819;SDS011;4949;48.482;9.206;2022-09-16T11:19:03;5.03;;;3.70;;
9819;SDS011;4949;48.482;9.206;2022-09-16T11:34:51;5.30;;;3.90;;
9819;SDS011;4949;48.482;9.206;2022-09-16T11:50:52;4.10;;;3.73;;
9819;SDS011;4949;48.482;9.206;2022-09-16T11:56:00;4.63;;;3.87;;
9819;SDS011;4949;48.482;9.206;2022-09-16T12:06:17;4.30;;;3.90;;
9819;SDS011;4949;48.482;9.206;2022-09-16T12:11:37;3.90;;;3.60;;
9819;SDS011;4949;48.482;9.206;2022-09-16T12:16:42;4.50;;;4.20;;
9819;SDS011;4949;48.482;9.206;2022-09-16T12:21:49;4.43;;;4.03;;
9819;SDS011;4949;48.482;9.206;2022-09-16T12:26:58;4.33;;;4.03;;
9819;SDS011;4949;48.482;9.206;2022-09-16T12:32:07;3.90;;;3.50;;
9819;SDS011;4949;48.482;9.206;2022-09-16T12:42:50;4.10;;;3.70;;
9819;SDS011;4949;48.482;9.206;2022-09-16T13:03:58;4.70;;;3.40;;
9819;SDS011;4949;48.482;9.206;2022-09-16T13:14:26;2.97;;;2.77;;
9819;SDS011;4949;48.482;9.206;2022-09-16T13:30:27;3.73;;;3.43;;
9819;SDS011;4949;48.482;9.206;2022-09-16T13:40:37;4.33;;;2.90;;
9819;SDS011;4949;48.482;9.206;2022-09-16T13:45:43;3.50;;;2.40;;
9819;SDS011;4949;48.482;9.206;2022-09-16T13:50:56;2.53;;;2.33;;
9819;SDS011;4949;48.482;9.206;2022-09-16T14:01:28;2.50;;;2.30;;
9819;SDS011;4949;48.482;9.206;2022-09-16T14:11:39;3.00;;;2.35;;
9819;SDS011;4949;48.482;9.206;2022-09-16T14:16:48;2.40;;;2.20;;
9819;SDS011;4949;48.482;9.206;2022-09-16T14:27:18;5.13;;;2.33;;
9819;SDS011;4949;48.482;9.206;2022-09-16T14:32:18;2.20;;;2.00;;
9819;SDS011;4949;48.482;9.206;2022-09-16T14:37:21;3.80;;;2.53;;
9819;SDS011;4949;48.482;9.206;2022-09-16T14:42:24;3.27;;;2.97;;
9819;SDS011;4949;48.482;9.206;2022-09-16T14:52:32;2.60;;;2.40;;
9819;SDS011;4949;48.482;9.206;2022-09-16T14:57:38;3.20;;;2.93;;
9819;SDS011;4949;48.482;9.206;2022-09-16T15:07:43;3.80;;;2.80;;
9819;SDS011;4949;48.482;9.206;2022-09-16T15:12:47;3.50;;;2.60;;
9819;SDS011;4949;48.482;9.206;2022-09-16T15:17:59;2.80;;;2.40;;
9819;SDS011;4949;48.482;9.206;2022-09-16T15:23:18;3.57;;;3.00;;
9819;SDS011;4949;48.482;9.206;2022-09-16T15:28:20;3.40;;;3.10;;
9819;SDS011;4949;48.482;9.206;2022-09-16T15:33:23;2.90;;;2.60;;
9819;SDS011;4949;48.482;9.206;2022-09-16T15:38:36;4.03;;;2.87;;
9819;SDS011;4949;48.482;9.206;2022-09-16T15:43:40;3.00;;;2.50;;
9819;SDS011;4949;48.482;9.206;2022-09-16T15:48:44;2.80;;;2.30;;
9819;SDS011;4949;48.482;9.206;2022-09-16T15:53:47;2.97;;;2.60;;
9819;SDS011;4949;48.482;9.206;2022-09-16T15:58:53;3.60;;;2.60;;
9819;SDS011;4949;48.482;9.206;2022-09-16T16:03:58;3.80;;;2.80;;
9819;SDS011;4949;48.482;9.206;2022-09-16T16:09:02;2.87;;;2.53;;
9819;SDS011;4949;48.482;9.206;2022-09-16T16:14:05;3.00;;;2.77;;
9819;SDS011;4949;48.482;9.206;2022-09-16T16:19:08;3.50;;;3.20;;
9819;SDS011;4949;48.482;9.206;2022-09-16T16:24:08;4.00;;;2.30;;
9819;SDS011;4949;48.482;9.206;2022-09-16T16:29:11;3.63;;;2.57;;
9819;SDS011;4949;48.482;9.206;2022-09-16T16:34:13;3.77;;;2.57;;
9819;SDS011;4949;48.482;9.206;2022-09-16T16:39:16;3.57;;;2.30;;
9819;SDS011;4949;48.482;9.206;2022-09-16T16:44:16;2.90;;;2.60;;
9819;SDS011;4949;48.482;9.206;2022-09-16T16:49:17;2.73;;;2.27;;
9819;SDS011;4949;48.482;9.206;2022-09-16T16:54:25;3.50;;;2.53;;
9819;SDS011;4949;48.482;9.206;2022-09-16T16:59:28;2.30;;;2.10;;
9819;SDS011;4949;48.482;9.206;2022-09-16T17:04:29;4.17;;;2.47;;
9819;SDS011;4949;48.482;9.206;2022-09-16T17:09:31;2.57;;;2.33;;
9819;SDS011;4949;48.482;9.206;2022-09-16T17:14:34;2.47;;;2.27;;
9819;SDS011;4949;48.482;9.206;2022-09-16T17:19:35;4.50;;;2.20;;
9819;SDS011;4949;48.482;9.206;2022-09-16T17:24:35;2.80;;;2.50;;
9819;SDS011;4949;48.482;9.206;2022-09-16T17:29:36;3.00;;;2.70;;
9819;SDS011;4949;48.482;9.206;2022-09-16T17:34:39;3.20;;;2.50;;
9819;SDS011;4949;48.482;9.206;2022-09-16T17:39:42;5.03;;;2.20;;
9819;SDS011;4949;48.482;9.206;2022-09-16T17:44:43;4.13;;;3.20;;
9819;SDS011;4949;48.482;9.206;2022-09-16T17:49:45;2.60;;;2.40;;
9819;SDS011;4949;48.482;9.206;2022-09-16T17:54:46;3.07;;;2.50;;
9819;SDS011;4949;48.482;9.206;2022-09-16T17:59:46;6.47;;;3.07;;
9819;SDS011;4949;48.482;9.206;2022-09-16T18:04:47;3.23;;;2.93;;
9819;SDS011;4949;48.482;9.206;2022-09-16T18:09:50;4.77;;;3.20;;
9819;SDS011;4949;48.482;9.206;2022-09-16T18:14:50;4.00;;;3.20;;
9819;SDS011;4949;48.482;9.206;2022-09-16T18:19:55;5.43;;;3.27;;
9819;SDS011;4949;48.482;9.206;2022-09-16T18:24:55;4.73;;;2.90;;
9819;SDS011;4949;48.482;9.206;2022-09-16T18:29:56;4.00;;;2.87;;
9819;SDS011;4949;48.482;9.206;2022-09-16T18:34:56;4.30;;;3.00;;
9819;SDS011;4949;48.482;9.206;2022-09-16T18:39:57;4.77;;;3.03;;
9819;SDS011;4949;48.482;9.206;2022-09-16T18:44:57;2.80;;;2.30;;
9819;SDS011;4949;48.482;9.206;2022-09-16T18:49:57;6.03;;;3.80;;
9819;SDS011;4949;48.482;9.206;2022-09-16T18:54:58;6.03;;;3.80;;
9819;SDS011;4949;48.482;9.206;2022-09-16T18:59:58;5.43;;;3.83;;
9819;SDS011;4949;48.482;9.206;2022-09-16T19:04:59;5.03;;;3.70;;
9819;SDS011;4949;48.482;9.206;2022-09-16T19:10:02;4.53;;;4.13;;
9819;SDS011;4949;48.482;9.206;2022-09-16T19:15:03;3.20;;;2.90;;
9819;SDS011;4949;48.482;9.206;2022-09-16T19:20:06;8.30;;;4.80;;
9819;SDS011;4949;48.482;9.206;2022-09-16T19:25:10;4.47;;;3.40;;
9819;SDS011;4949;48.482;9.206;2022-09-16T19:30:12;3.50;;;3.20;;
9819;SDS011;4949;48.482;9.206;2022-09-16T19:35:15;4.10;;;3.30;;
9819;SDS011;4949;48.482;9.206;2022-09-16T19:40:18;3.43;;;3.13;;
9819;SDS011;4949;48.482;9.206;2022-09-16T19:45:19;6.53;;;2.73;;
9819;SDS011;4949;48.482;9.206;2022-09-16T19:50:21;4.10;;;3.10;;
9819;SDS011;4949;48.482;9.206;2022-09-16T19:55:21;5.10;;;2.90;;
9819;SDS011;4949;48.482;9.206;2022-09-16T20:00:23;2.60;;;2.10;;
9819;SDS011;4949;48.482;9.206;2022-09-16T20:05:24;3.53;;;2.40;;
9819;SDS011;4949;48.482;9.206;2022-09-16T20:10:25;3.13;;;2.10;;
9819;SDS011;4949;48.482;9.206;2022-09-16T20:15:26;2.10;;;2.00;;
9819;SDS011;4949;48.482;9.206;2022-09-16T20:20:27;2.20;;;1.73;;
9819;SDS011;4949;48.482;9.206;2022-09-16T20:25:30;2.40;;;1.67;;
9819;SDS011;4949;48.482;9.206;2022-09-16T20:30:33;2.27;;;2.07;;
9819;SDS011;4949;48.482;9.206;2022-09-16T20:35:35;3.27;;;2.60;;
9819;SDS011;4949;48.482;9.206;2022-09-16T20:40:35;2.50;;;2.00;;
9819;SDS011;4949;48.482;9.206;2022-09-16T20:45:36;2.60;;;2.37;;
9819;SDS011;4949;48.482;9.206;2022-09-16T20:50:37;3.97;;;2.73;;
9819;SDS011;4949;48.482;9.206;2022-09-16T20:55:38;2.90;;;2.30;;
9819;SDS011;4949;48.482;9.206;2022-09-16T21:00:38;4.00;;;2.53;;
9819;SDS011;4949;48.482;9.206;2022-09-16T21:05:41;1.70;;;1.60;;
9819;SDS011;4949;48.482;9.206;2022-09-16T21:10:41;1.63;;;1.53;;
9819;SDS011;4949;48.482;9.206;2022-09-16T21:15:42;1.83;;;1.70;;
9819;SDS011;4949;48.482;9.206;2022-09-16T21:20:44;3.23;;;2.07;;
9819;SDS011;4949;48.482;9.206;2022-09-16T21:25:47;2.03;;;1.80;;
9819;SDS011;4949;48.482;9.206;2022-09-16T21:30:47;1.77;;;1.50;;
9819;SDS011;4949;48.482;9.206;2022-09-16T21:35:50;2.30;;;1.90;;
9819;SDS011;4949;48.482;9.206;2022-09-16T21:40:55;1.83;;;1.73;;
9819;SDS011;4949;48.482;9.206;2022-09-16T21:45:57;2.00;;;1.77;;
9819;SDS011;4949;48.482;9.206;2022-09-16T21:51:01;2.10;;;1.90;;
9819;SDS011;4949;48.482;9.206;2022-09-16T21:56:05;1.47;;;1.37;;
9819;SDS011;4949;48.482;9.206;2022-09-16T22:01:40;3.57;;;1.50;;
9819;SDS011;4949;48.482;9.206;2022-09-16T22:06:34;1.70;;;1.60;;
9819;SDS011;4949;48.482;9.206;2022-09-16T22:11:38;1.50;;;1.40;;
9819;SDS011;4949;48.482;9.206;2022-09-16T22:16:42;1.57;;;1.30;;
9819;SDS011;4949;48.482;9.206;2022-09-16T22:21:44;1.50;;;1.40;;
9819;SDS011;4949;48.482;9.206;2022-09-16T22:26:46;2.27;;;1.77;;
9819;SDS011;4949;48.482;9.206;2022-09-16T22:31:47;2.27;;;1.63;;
9819;SDS011;4949;48.482;9.206;2022-09-16T22:36:48;2.23;;;1.30;;
9819;SDS011;4949;48.482;9.206;2022-09-16T22:41:48;2.30;;;1.77;;
9819;SDS011;4949;48.482;9.206;2022-09-16T22:46:48;2.03;;;1.63;;
9819;SDS011;4949;48.482;9.206;2022-09-16T22:51:49;1.90;;;1.53;;
9819;SDS011;4949;48.482;9.206;2022-09-16T22:56:52;2.10;;;1.27;;
9819;SDS011;4949;48.482;9.206;2022-09-16T23:01:52;1.98;;;1.55;;
9819;SDS011;4949;48.482;9.206;2022-09-16T23:06:53;3.03;;;2.00;;
9819;SDS011;4949;48.482;9.206;2022-09-16T23:11:53;2.33;;;1.60;;
9819;SDS011;4949;48.482;9.206;2022-09-16T23:16:56;3.13;;;1.50;;
9819;SDS011;4949;48.482;9.206;2022-09-16T23:21:56;1.43;;;1.33;;
9819;SDS011;4949;48.482;9.206;2022-09-16T23:26:57;1.67;;;1.50;;
9819;SDS011;4949;48.482;9.206;2022-09-16T23:31:57;1.87;;;1.60;;
9819;SDS011;4949;48.482;9.206;2022-09-16T23:37:01;1.53;;;1.43;;
9819;SDS011;4949;48.482;9.206;2022-09-16T23:42:01;1.60;;;1.50;;
9819;SDS011;4949;48.482;9.206;2022-09-16T23:47:02;1.43;;;1.33;;
9819;SDS011;4949;48.482;9.206;2022-09-16T23:52:02;2.27;;;1.80;;
9819;SDS011;4949;48.482;9.206;2022-09-16T23:57:02;2.00;;;1.60;;
